Time;durP1;ratioP1;P1;durP2;ratioP2;P2;SDS_P1;SDS_P2;PMS_P1;PMS_P2;Temp;Humidity;BMP_temperature;BMP_pressure;BME280_temperature;BME280_humidity;BME280_pressure;Samples;Min_cycle;Max_cycle;Signal;HPM_P1;HPM_P2
2022/08/25 19:00:44;;;;;;;11.10;5.27;;;;;;;24.66;30.47;100215.91;1744433;80;21549;-55
2022/08/25 19:03:13;;;;;;;10.37;4.40;;;;;;;24.63;30.58;100214.61;1752617;80;21035;-55
2022/08/25 19:05:43;;;;;;;10.37;5.03;;;;;;;24.68;30.67;100207.91;1741649;80;21118;-55
2022/08/25 19:08:14;;;;;;;14.77;5.47;;;;;;;24.63;30.92;100204.49;1765706;80;21833;-55
2022/08/25 19:10:42;;;;;;;10.00;4.37;;;;;;;24.53;31.09;100205.89;1751590;80;21040;-55
2022/08/25 19:13:10;;;;;;;15.97;4.77;;;;;;;24.44;31.21;100206.48;1759633;80;21489;-55
2022/08/25 19:15:39;;;;;;;10.00;4.30;;;;;;;24.35;31.30;100202.75;1754929;80;21010;-66
2022/08/25 19:18:07;;;;;;;11.83;5.20;;;;;;;24.31;31.37;100197.72;1739694;80;20940;-55
2022/08/25 19:20:34;;;;;;;12.60;5.87;;;;;;;24.27;31.40;100206.80;1747268;80;21526;-65
2022/08/25 19:23:02;;;;;;;12.23;5.33;;;;;;;24.25;31.59;100209.50;1741313;80;21117;-55
2022/08/25 19:25:30;;;;;;;12.33;5.20;;;;;;;24.19;31.73;100198.59;1761665;80;21537;-55
2022/08/25 19:27:58;;;;;;;14.17;4.63;;;;;;;24.12;31.85;100207.42;1747730;80;21449;-59
2022/08/25 19:30:27;;;;;;;10.60;5.47;;;;;;;24.10;32.02;100215.69;1760873;80;21526;-57
2022/08/25 19:32:54;;;;;;;14.17;5.47;;;;;;;24.06;32.12;100211.98;1749911;80;21848;-56
2022/08/25 19:35:40;;;;;;;13.47;5.83;;;;;;;24.04;32.35;100212.78;1748145;80;20971;-55
2022/08/25 19:38:07;;;;;;;13.77;5.27;;;;;;;23.98;32.48;100212.02;1747788;80;21943;-58
2022/08/25 19:40:36;;;;;;;13.27;5.77;;;;;;;23.93;32.63;100214.69;1750644;80;22066;-55
2022/08/25 19:43:05;;;;;;;11.53;4.93;;;;;;;23.80;32.86;100208.62;1759237;80;21051;-56
2022/08/25 19:45:33;;;;;;;11.33;4.90;;;;;;;23.80;32.97;100209.95;1745982;80;21926;-55
2022/08/25 19:48:00;;;;;;;14.67;5.07;;;;;;;23.79;32.99;100208.38;1768179;80;21075;-65
2022/08/25 19:50:27;;;;;;;10.37;5.13;;;;;;;23.76;33.06;100209.70;1763955;80;20968;-56
2022/08/25 19:52:54;;;;;;;12.00;4.77;;;;;;;23.71;33.03;100215.02;1756801;80;21051;-57
2022/08/25 19:55:23;;;;;;;24.53;5.63;;;;;;;23.72;33.00;100213.19;1759379;80;21055;-56
2022/08/25 19:57:50;;;;;;;15.53;5.83;;;;;;;23.71;33.10;100214.23;1748571;80;21242;-55
2022/08/25 20:00:28;;;;;;;11.93;5.00;;;;;;;23.72;33.25;100213.19;1752909;80;21043;-63
2022/08/25 20:02:56;;;;;;;14.70;4.23;;;;;;;23.66;33.36;100212.89;1753573;80;21050;-55
2022/08/25 20:05:23;;;;;;;13.93;5.13;;;;;;;23.57;33.48;100212.66;1752349;80;21135;-59
2022/08/25 20:07:51;;;;;;;12.63;5.47;;;;;;;23.62;33.49;100218.50;1762596;80;21050;-56
2022/08/25 20:10:19;;;;;;;12.67;4.70;;;;;;;23.50;33.72;100216.92;1734987;80;21296;-66
2022/08/25 20:12:46;;;;;;;9.80;5.33;;;;;;;23.45;33.72;100216.95;1743380;80;21102;-55
2022/08/25 20:15:14;;;;;;;12.87;5.17;;;;;;;23.38;34.00;100212.44;1769261;80;21352;-58
2022/08/25 20:17:42;;;;;;;11.43;4.67;;;;;;;23.29;34.13;100223.34;1763425;80;21239;-55
2022/08/25 20:20:11;;;;;;;10.77;5.03;;;;;;;23.24;34.26;100214.05;1759212;80;21541;-56
2022/08/25 20:22:38;;;;;;;12.30;4.97;;;;;;;23.26;34.31;100219.38;1752979;80;21206;-66
2022/08/25 20:25:13;;;;;;;10.83;4.97;;;;;;;23.16;34.54;100210.06;1758336;80;21387;-57
2022/08/25 20:27:46;;;;;;;12.47;5.00;;;;;;;23.05;34.69;100215.12;1753370;81;22095;-55
2022/08/25 20:30:17;;;;;;;10.53;4.53;;;;;;;23.03;34.83;100208.76;1752274;80;21589;-66
2022/08/25 20:32:45;;;;;;;11.77;5.00;;;;;;;23.00;34.99;100212.48;1758127;80;21455;-62
2022/08/25 20:35:13;;;;;;;9.67;4.80;;;;;;;22.94;35.09;100209.55;1747825;80;21417;-56
2022/08/25 20:37:42;;;;;;;14.07;6.03;;;;;;;22.89;35.19;100206.86;1759452;80;20968;-56
2022/08/25 20:40:13;;;;;;;12.17;5.33;;;;;;;22.84;35.33;100211.62;1770434;80;20932;-65
2022/08/25 20:42:40;;;;;;;12.75;5.47;;;;;;;22.77;35.37;100211.11;1740681;81;21458;-66
2022/08/25 20:45:09;;;;;;;15.70;6.80;;;;;;;22.78;35.42;100217.48;1741556;80;21124;-55
2022/08/25 20:47:36;;;;;;;14.27;6.70;;;;;;;22.80;35.52;100208.70;1746758;80;21088;-55
2022/08/25 20:50:04;;;;;;;12.53;7.20;;;;;;;22.76;35.69;100217.47;1757354;80;21015;-56
2022/08/25 20:52:31;;;;;;;14.87;6.60;;;;;;;22.73;35.83;100216.66;1764625;80;21038;-57
2022/08/25 20:54:59;;;;;;;14.43;6.17;;;;;;;22.67;35.94;100219.06;1745242;80;21400;-55
2022/08/25 20:57:26;;;;;;;20.93;7.87;;;;;;;22.65;36.05;100216.66;1761089;80;21040;-55
2022/08/25 20:59:55;;;;;;;20.23;9.53;;;;;;;22.61;36.14;100212.93;1771646;80;21399;-55
2022/08/25 21:02:23;;;;;;;21.40;9.90;;;;;;;22.58;36.25;100209.50;1738164;79;21397;-66
2022/08/25 21:04:50;;;;;;;21.27;9.77;;;;;;;22.56;36.28;100208.95;1677039;83;20987;-56
2022/08/25 21:07:18;;;;;;;21.67;11.07;;;;;;;22.54;36.38;100208.40;1685640;83;22323;-55
2022/08/25 21:09:45;;;;;;;19.20;11.70;;;;;;;22.52;36.49;100210.00;1684774;83;21920;-58
2022/08/25 21:12:13;;;;;;;21.20;13.10;;;;;;;22.48;36.59;100210.80;1683258;83;21809;-55
2022/08/25 21:14:42;;;;;;;24.30;13.57;;;;;;;22.48;36.61;100208.94;1719939;82;21057;-60
2022/08/25 21:17:14;;;;;;;26.13;14.37;;;;;;;22.50;36.74;100209.48;1699570;83;20983;-55
2022/08/25 21:19:41;;;;;;;31.20;17.17;;;;;;;22.46;36.86;100205.73;1694584;83;21130;-67
2022/08/25 21:22:09;;;;;;;30.83;18.43;;;;;;;22.45;37.01;100212.11;1674473;84;21080;-56
2022/08/25 21:24:37;;;;;;;33.90;18.33;;;;;;;22.43;37.17;100214.25;1698327;82;21840;-66
2022/08/25 21:27:04;;;;;;;36.30;19.47;;;;;;;22.47;37.20;100211.87;1716410;82;22189;-56
2022/08/25 21:29:32;;;;;;;32.67;17.47;;;;;;;22.42;37.27;100222.46;1719450;82;21046;-58
2022/08/25 21:31:59;;;;;;;35.73;17.63;;;;;;;22.40;37.33;100216.09;1720812;81;20959;-60
2022/08/25 21:34:26;;;;;;;30.77;16.77;;;;;;;22.35;37.42;100217.42;1750109;80;21500;-56
2022/08/25 21:36:56;;;;;;;30.00;16.83;;;;;;;22.34;37.51;100216.59;1772473;80;21780;-56
2022/08/25 21:39:25;;;;;;;30.20;15.50;;;;;;;22.30;37.59;100225.36;1746052;80;21157;-56
2022/08/25 21:41:52;;;;;;;28.97;15.20;;;;;;;22.32;37.67;100215.28;1760744;80;21910;-66
2022/08/25 21:44:20;;;;;;;28.27;14.47;;;;;;;22.33;37.78;100216.34;1735441;80;21158;-57
2022/08/25 21:46:48;;;;;;;27.93;14.70;;;;;;;22.33;37.78;100211.56;1749378;80;21725;-56
2022/08/25 21:49:16;;;;;;;27.50;13.67;;;;;;;22.34;37.90;100208.62;1736141;80;21228;-55
2022/08/25 21:51:44;;;;;;;26.60;12.53;;;;;;;22.36;37.91;100212.91;1723225;80;21008;-65
2022/08/25 21:54:14;;;;;;;32.47;11.70;;;;;;;22.37;37.91;100213.16;1736301;80;21047;-56
2022/08/25 21:56:50;;;;;;;20.45;11.35;;;;;;;22.39;37.95;100215.84;1745875;80;21692;-56
2022/08/25 21:59:22;;;;;;;22.20;10.97;;;;;;;22.37;37.96;100219.27;1734627;81;21066;-57
2022/08/25 22:01:54;;;;;;;23.63;12.10;;;;;;;22.39;37.77;100211.85;1746387;80;21455;-57
2022/08/25 22:04:21;;;;;;;26.75;13.30;;;;;;;22.40;37.47;100217.42;1750159;80;21228;-56
2022/08/25 22:06:49;;;;;;;26.03;14.90;;;;;;;22.42;37.26;100214.49;1751918;80;21104;-58
2022/08/25 22:09:17;;;;;;;27.50;13.87;;;;;;;22.43;37.10;100204.95;1764120;80;21294;-66
2022/08/25 22:11:44;;;;;;;19.83;11.40;;;;;;;22.48;36.98;100210.27;1754617;80;21896;-66
2022/08/25 22:14:12;;;;;;;15.87;9.90;;;;;;;22.52;36.97;100213.98;1761861;80;21094;-56
2022/08/25 22:16:39;;;;;;;17.30;8.57;;;;;;;22.57;36.93;100215.84;1736126;80;21556;-57
2022/08/25 22:19:07;;;;;;;17.50;9.57;;;;;;;22.57;36.92;100208.67;1754267;80;21534;-66
2022/08/25 22:21:35;;;;;;;20.83;10.43;;;;;;;22.58;36.90;100214.28;1734609;80;21072;-57
2022/08/25 22:24:03;;;;;;;20.07;10.03;;;;;;;22.58;36.88;100207.63;1739520;80;21024;-63
2022/08/25 22:26:30;;;;;;;15.63;7.37;;;;;;;22.56;36.89;100215.05;1733898;80;21135;-57
2022/08/25 22:28:58;;;;;;;13.83;6.63;;;;;;;22.61;36.86;100214.80;1746966;80;21082;-56
2022/08/25 22:31:26;;;;;;;11.93;5.17;;;;;;;22.66;36.75;100215.61;1725741;80;21547;-58
2022/08/25 22:33:54;;;;;;;13.07;5.40;;;;;;;22.68;36.75;100212.68;1724275;80;21087;-56
2022/08/25 22:36:25;;;;;;;10.83;5.73;;;;;;;22.73;36.70;100216.16;1744427;80;21528;-57
2022/08/25 22:38:52;;;;;;;18.98;5.37;;;;;;;22.77;36.64;100217.75;1734008;80;21897;-57
2022/08/25 22:41:19;;;;;;;11.17;5.03;;;;;;;22.80;36.67;100206.57;1725322;80;21600;-64
2022/08/25 22:43:46;;;;;;;11.13;5.77;;;;;;;22.78;36.70;100210.05;1733466;80;21069;-65
2022/08/25 22:46:13;;;;;;;11.33;5.17;;;;;;;22.76;36.77;100207.63;1733202;80;21149;-56
2022/08/25 22:48:40;;;;;;;8.93;4.40;;;;;;;22.75;36.88;100207.91;1754495;80;21543;-56
2022/08/25 22:51:13;;;;;;;13.57;5.00;;;;;;;22.75;36.78;100206.05;1727422;80;21236;-57
2022/08/25 22:53:41;;;;;;;10.80;4.87;;;;;;;22.71;36.77;100211.62;1743125;80;21075;-56
2022/08/25 22:56:09;;;;;;;15.00;5.07;;;;;;;22.75;36.62;100206.05;1744793;79;21026;-56
2022/08/25 22:58:36;;;;;;;11.33;4.37;;;;;;;22.80;36.63;100210.56;1748355;80;21517;-56
2022/08/25 23:01:06;;;;;;;7.73;3.97;;;;;;;22.80;36.57;100207.91;1754994;80;20971;-57
2022/08/25 23:03:33;;;;;;;9.47;3.90;;;;;;;22.87;36.47;100204.98;1755473;80;21125;-60
2022/08/25 23:06:00;;;;;;;13.10;4.13;;;;;;;22.88;36.56;100212.72;1754364;80;21650;-61
2022/08/25 23:08:27;;;;;;;12.63;5.20;;;;;;;22.89;36.60;100210.31;1754960;80;21102;-55
2022/08/25 23:10:55;;;;;;;10.93;3.47;;;;;;;22.85;36.73;100206.59;1755568;80;21071;-56
2022/08/25 23:13:22;;;;;;;10.20;4.20;;;;;;;22.79;36.86;100210.30;1745996;80;21115;-56
2022/08/25 23:15:50;;;;;;;9.03;4.10;;;;;;;22.74;37.01;100214.30;1747859;80;22217;-57
2022/08/25 23:18:18;;;;;;;11.97;4.40;;;;;;;22.69;37.22;100216.92;1761948;80;21005;-55
2022/08/25 23:23:34;;;;;;;13.07;4.10;;;;;;;22.57;37.54;100219.30;1752046;80;21063;-55
2022/08/25 23:26:01;;;;;;;12.50;4.10;;;;;;;22.51;37.79;100223.02;1752520;80;21031;-56
2022/08/25 23:28:29;;;;;;;8.33;3.57;;;;;;;22.43;38.09;100224.08;1708602;82;21406;-55
2022/08/25 23:30:56;;;;;;;7.17;3.43;;;;;;;22.35;38.31;100220.08;1717418;82;21221;-55
2022/08/25 23:33:23;;;;;;;8.83;3.60;;;;;;;22.27;38.50;100221.89;1698135;82;21728;-64
2022/08/25 23:36:00;;;;;;;9.47;3.80;;;;;;;22.21;38.69;100234.36;1704232;83;21860;-57
2022/08/25 23:38:27;;;;;;;9.53;3.33;;;;;;;22.17;38.84;100235.16;1738824;80;21480;-55
2022/08/25 23:40:54;;;;;;;9.93;4.33;;;;;;;22.13;38.96;100230.06;1734933;80;21222;-55
2022/08/25 23:43:21;;;;;;;11.37;4.63;;;;;;;22.09;39.09;100238.55;1753499;80;21054;-63
2022/08/25 23:45:48;;;;;;;9.33;3.47;;;;;;;22.06;39.15;100233.75;1753766;80;21014;-65
2022/08/25 23:48:16;;;;;;;9.83;4.43;;;;;;;22.02;39.39;100240.63;1741168;80;21196;-55
2022/08/25 23:50:45;;;;;;;12.37;3.50;;;;;;;21.97;39.50;100243.27;1738241;80;21926;-55
2022/08/25 23:53:12;;;;;;;8.73;3.60;;;;;;;21.90;39.64;100240.05;1730540;80;21217;-55
2022/08/25 23:55:40;;;;;;;9.27;3.57;;;;;;;21.83;39.91;100246.12;1730646;80;21000;-55
2022/08/25 23:58:07;;;;;;;8.70;3.80;;;;;;;21.73;40.16;100244.20;1743661;80;21464;-57
